sensor_id;sensor_type;location;lat;lon;timestamp;temperature;humidity
52919;DHT22;38793;52.690;6.812;2023-04-29T00:00:37;10.80;99.90
52919;DHT22;38793;52.690;6.812;2023-04-29T00:03:03;10.80;99.90
52919;DHT22;38793;52.690;6.812;2023-04-29T00:05:28;10.80;99.90
52919;DHT22;38793;52.690;6.812;2023-04-29T00:07:54;10.80;99.90
52919;DHT22;38793;52.690;6.812;2023-04-29T00:10:20;10.70;99.90
52919;DHT22;38793;52.690;6.812;2023-04-29T00:12:45;10.70;99.90
52919;DHT22;38793;52.690;6.812;2023-04-29T00:15:11;10.70;99.90
52919;DHT22;38793;52.690;6.812;2023-04-29T00:17:36;10.70;99.90
52919;DHT22;38793;52.690;6.812;2023-04-29T00:20:02;10.70;99.90
52919;DHT22;38793;52.690;6.812;2023-04-29T00:22:28;10.70;99.90
52919;DHT22;38793;52.690;6.812;2023-04-29T00:24:54;10.70;99.90
52919;DHT22;38793;52.690;6.812;2023-04-29T00:27:20;10.70;99.90
52919;DHT22;38793;52.690;6.812;2023-04-29T00:29:45;10.70;99.90
52919;DHT22;38793;52.690;6.812;2023-04-29T00:32:11;10.70;99.90
52919;DHT22;38793;52.690;6.812;2023-04-29T00:34:36;10.60;99.90
52919;DHT22;38793;52.690;6.812;2023-04-29T00:37:02;10.60;99.90
52919;DHT22;38793;52.690;6.812;2023-04-29T00:39:28;10.60;99.90
52919;DHT22;38793;52.690;6.812;2023-04-29T00:41:54;10.60;99.90
52919;DHT22;38793;52.690;6.812;2023-04-29T00:44:19;10.60;99.90
52919;DHT22;38793;52.690;6.812;2023-04-29T00:46:45;10.60;99.90
52919;DHT22;38793;52.690;6.812;2023-04-29T00:49:12;10.60;99.90
52919;DHT22;38793;52.690;6.812;2023-04-29T00:51:39;10.60;99.90
52919;DHT22;38793;52.690;6.812;2023-04-29T00:54:06;10.60;99.90
52919;DHT22;38793;52.690;6.812;2023-04-29T00:56:34;10.50;99.90
52919;DHT22;38793;52.690;6.812;2023-04-29T00:59:01;10.50;99.90
52919;DHT22;38793;52.690;6.812;2023-04-29T01:01:28;10.50;99.90
52919;DHT22;38793;52.690;6.812;2023-04-29T01:03:55;10.50;99.90
52919;DHT22;38793;52.690;6.812;2023-04-29T01:06:45;10.50;99.90
52919;DHT22;38793;52.690;6.812;2023-04-29T01:09:28;10.50;99.90
52919;DHT22;38793;52.690;6.812;2023-04-29T01:14:50;10.40;99.90
52919;DHT22;38793;52.690;6.812;2023-04-29T01:17:22;10.40;99.90
52919;DHT22;38793;52.690;6.812;2023-04-29T01:19:54;10.40;99.90
52919;DHT22;38793;52.690;6.812;2023-04-29T01:22:21;10.40;99.90
52919;DHT22;38793;52.690;6.812;2023-04-29T01:24:47;10.40;99.90
52919;DHT22;38793;52.690;6.812;2023-04-29T01:29:54;10.40;99.90
52919;DHT22;38793;52.690;6.812;2023-04-29T01:35:52;10.40;99.90
52919;DHT22;38793;52.690;6.812;2023-04-29T01:38:24;10.40;99.90
52919;DHT22;38793;52.690;6.812;2023-04-29T01:43:29;10.40;99.90
52919;DHT22;38793;52.690;6.812;2023-04-29T01:45:57;10.30;99.90
52919;DHT22;38793;52.690;6.812;2023-04-29T01:48:24;10.30;99.90
52919;DHT22;38793;52.690;6.812;2023-04-29T01:50:50;10.30;99.90
52919;DHT22;38793;52.690;6.812;2023-04-29T01:53:15;10.30;99.90
52919;DHT22;38793;52.690;6.812;2023-04-29T01:55:41;10.30;99.90
52919;DHT22;38793;52.690;6.812;2023-04-29T01:58:09;10.30;99.90
52919;DHT22;38793;52.690;6.812;2023-04-29T02:00:35;10.30;99.90
52919;DHT22;38793;52.690;6.812;2023-04-29T02:03:02;10.30;99.90
52919;DHT22;38793;52.690;6.812;2023-04-29T02:05:28;10.20;99.90
52919;DHT22;38793;52.690;6.812;2023-04-29T02:07:58;10.20;99.90
52919;DHT22;38793;52.690;6.812;2023-04-29T02:10:24;10.20;99.90
52919;DHT22;38793;52.690;6.812;2023-04-29T02:12:49;10.20;99.90
52919;DHT22;38793;52.690;6.812;2023-04-29T02:15:15;10.20;99.90
52919;DHT22;38793;52.690;6.812;2023-04-29T02:17:41;10.20;99.90
52919;DHT22;38793;52.690;6.812;2023-04-29T02:20:07;10.20;99.90
52919;DHT22;38793;52.690;6.812;2023-04-29T02:22:34;10.20;99.90
52919;DHT22;38793;52.690;6.812;2023-04-29T02:25:00;10.20;99.90
52919;DHT22;38793;52.690;6.812;2023-04-29T02:27:25;10.20;99.90
52919;DHT22;38793;52.690;6.812;2023-04-29T02:29:51;10.10;99.90
52919;DHT22;38793;52.690;6.812;2023-04-29T02:32:17;10.10;99.90
52919;DHT22;38793;52.690;6.812;2023-04-29T02:34:45;10.10;99.90
52919;DHT22;38793;52.690;6.812;2023-04-29T02:37:10;10.10;99.90
52919;DHT22;38793;52.690;6.812;2023-04-29T02:39:36;10.10;99.90
52919;DHT22;38793;52.690;6.812;2023-04-29T02:42:01;10.10;99.90
52919;DHT22;38793;52.690;6.812;2023-04-29T02:44:27;10.10;99.90
52919;DHT22;38793;52.690;6.812;2023-04-29T02:46:53;10.10;99.90
52919;DHT22;38793;52.690;6.812;2023-04-29T02:49:19;10.10;99.90
52919;DHT22;38793;52.690;6.812;2023-04-29T02:51:44;10.00;99.90
52919;DHT22;38793;52.690;6.812;2023-04-29T02:54:10;10.00;99.90
52919;DHT22;38793;52.690;6.812;2023-04-29T02:56:36;10.00;99.90
52919;DHT22;38793;52.690;6.812;2023-04-29T02:59:02;10.00;99.90
52919;DHT22;38793;52.690;6.812;2023-04-29T03:01:27;10.00;99.90
52919;DHT22;38793;52.690;6.812;2023-04-29T03:03:53;10.00;99.90
52919;DHT22;38793;52.690;6.812;2023-04-29T03:06:22;10.00;99.90
52919;DHT22;38793;52.690;6.812;2023-04-29T03:08:48;10.00;99.90
52919;DHT22;38793;52.690;6.812;2023-04-29T03:11:13;10.00;99.90
52919;DHT22;38793;52.690;6.812;2023-04-29T03:13:39;10.00;99.90
52919;DHT22;38793;52.690;6.812;2023-04-29T03:16:05;10.00;99.90
52919;DHT22;38793;52.690;6.812;2023-04-29T03:18:31;10.00;99.90
52919;DHT22;38793;52.690;6.812;2023-04-29T03:20:56;10.00;99.90
52919;DHT22;38793;52.690;6.812;2023-04-29T03:23:23;10.00;99.90
52919;DHT22;38793;52.690;6.812;2023-04-29T03:25:48;10.00;99.90
52919;DHT22;38793;52.690;6.812;2023-04-29T03:28:14;10.00;99.90
52919;DHT22;38793;52.690;6.812;2023-04-29T03:30:40;9.90;99.90
52919;DHT22;38793;52.690;6.812;2023-04-29T03:33:05;9.90;99.90
52919;DHT22;38793;52.690;6.812;2023-04-29T03:35:31;9.90;99.90
52919;DHT22;38793;52.690;6.812;2023-04-29T03:37:57;9.90;99.90
52919;DHT22;38793;52.690;6.812;2023-04-29T03:40:22;9.90;99.90
52919;DHT22;38793;52.690;6.812;2023-04-29T03:42:48;9.90;99.90
52919;DHT22;38793;52.690;6.812;2023-04-29T03:45:13;9.90;99.90
52919;DHT22;38793;52.690;6.812;2023-04-29T03:47:39;9.90;99.90
52919;DHT22;38793;52.690;6.812;2023-04-29T03:50:06;9.90;99.90
52919;DHT22;38793;52.690;6.812;2023-04-29T03:52:32;9.90;99.90
52919;DHT22;38793;52.690;6.812;2023-04-29T03:55:01;9.80;99.90
52919;DHT22;38793;52.690;6.812;2023-04-29T03:57:27;9.80;99.90
52919;DHT22;38793;52.690;6.812;2023-04-29T03:59:52;9.80;99.90
52919;DHT22;38793;52.690;6.812;2023-04-29T04:02:18;9.80;99.90
52919;DHT22;38793;52.690;6.812;2023-04-29T04:04:44;9.80;99.90
52919;DHT22;38793;52.690;6.812;2023-04-29T04:07:09;9.80;99.90
52919;DHT22;38793;52.690;6.812;2023-04-29T04:09:36;9.80;99.90
52919;DHT22;38793;52.690;6.812;2023-04-29T04:12:02;9.70;99.90
52919;DHT22;38793;52.690;6.812;2023-04-29T04:14:28;9.70;99.90
52919;DHT22;38793;52.690;6.812;2023-04-29T04:16:54;9.70;99.90
52919;DHT22;38793;52.690;6.812;2023-04-29T04:19:20;9.70;99.90
52919;DHT22;38793;52.690;6.812;2023-04-29T04:21:46;9.70;99.90
52919;DHT22;38793;52.690;6.812;2023-04-29T04:24:11;9.60;99.90
52919;DHT22;38793;52.690;6.812;2023-04-29T04:26:37;9.70;99.90
52919;DHT22;38793;52.690;6.812;2023-04-29T04:29:03;9.60;99.90
52919;DHT22;38793;52.690;6.812;2023-04-29T04:31:29;9.60;99.90
52919;DHT22;38793;52.690;6.812;2023-04-29T04:33:55;9.60;99.90
52919;DHT22;38793;52.690;6.812;2023-04-29T04:36:21;9.70;99.90
52919;DHT22;38793;52.690;6.812;2023-04-29T04:38:46;9.60;99.90
52919;DHT22;38793;52.690;6.812;2023-04-29T04:41:12;9.60;99.90
52919;DHT22;38793;52.690;6.812;2023-04-29T04:43:37;9.60;99.90
52919;DHT22;38793;52.690;6.812;2023-04-29T04:46:08;9.60;99.90
52919;DHT22;38793;52.690;6.812;2023-04-29T04:48:34;9.60;99.90
52919;DHT22;38793;52.690;6.812;2023-04-29T04:51:09;9.60;99.90
52919;DHT22;38793;52.690;6.812;2023-04-29T04:53:35;9.60;99.90
52919;DHT22;38793;52.690;6.812;2023-04-29T04:56:02;9.60;99.90
52919;DHT22;38793;52.690;6.812;2023-04-29T04:58:27;9.60;99.90
52919;DHT22;38793;52.690;6.812;2023-04-29T05:00:53;9.60;99.90
52919;DHT22;38793;52.690;6.812;2023-04-29T05:03:19;9.60;99.90
52919;DHT22;38793;52.690;6.812;2023-04-29T05:05:44;9.60;99.90
52919;DHT22;38793;52.690;6.812;2023-04-29T05:08:10;9.60;99.90
52919;DHT22;38793;52.690;6.812;2023-04-29T05:10:36;9.60;99.90
52919;DHT22;38793;52.690;6.812;2023-04-29T05:13:02;9.60;99.90
52919;DHT22;38793;52.690;6.812;2023-04-29T05:15:27;9.60;99.90
52919;DHT22;38793;52.690;6.812;2023-04-29T05:17:53;9.60;99.90
52919;DHT22;38793;52.690;6.812;2023-04-29T05:20:19;9.60;99.90
52919;DHT22;38793;52.690;6.812;2023-04-29T05:22:45;9.60;99.90
52919;DHT22;38793;52.690;6.812;2023-04-29T05:25:11;9.60;99.90
52919;DHT22;38793;52.690;6.812;2023-04-29T05:27:36;9.60;99.90
52919;DHT22;38793;52.690;6.812;2023-04-29T05:30:03;9.60;99.90
52919;DHT22;38793;52.690;6.812;2023-04-29T05:32:28;9.60;99.90
52919;DHT22;38793;52.690;6.812;2023-04-29T05:34:54;9.60;99.90
52919;DHT22;38793;52.690;6.812;2023-04-29T05:37:19;9.60;99.90
52919;DHT22;38793;52.690;6.812;2023-04-29T05:39:45;9.60;99.90
52919;DHT22;38793;52.690;6.812;2023-04-29T05:42:10;9.60;99.90
52919;DHT22;38793;52.690;6.812;2023-04-29T05:44:36;9.60;99.90
52919;DHT22;38793;52.690;6.812;2023-04-29T05:47:02;9.60;99.90
52919;DHT22;38793;52.690;6.812;2023-04-29T05:49:27;9.60;99.90
52919;DHT22;38793;52.690;6.812;2023-04-29T05:51:53;9.60;99.90
52919;DHT22;38793;52.690;6.812;2023-04-29T05:54:18;9.60;99.90
52919;DHT22;38793;52.690;6.812;2023-04-29T05:56:44;9.60;99.90
52919;DHT22;38793;52.690;6.812;2023-04-29T05:59:10;9.70;99.90
52919;DHT22;38793;52.690;6.812;2023-04-29T06:01:35;9.70;99.90
52919;DHT22;38793;52.690;6.812;2023-04-29T06:04:01;9.70;99.90
52919;DHT22;38793;52.690;6.812;2023-04-29T06:06:26;9.70;99.90
52919;DHT22;38793;52.690;6.812;2023-04-29T06:08:53;9.70;99.90
52919;DHT22;38793;52.690;6.812;2023-04-29T06:11:18;9.70;99.90
52919;DHT22;38793;52.690;6.812;2023-04-29T06:13:44;9.70;99.90
52919;DHT22;38793;52.690;6.812;2023-04-29T06:16:10;9.70;99.90
52919;DHT22;38793;52.690;6.812;2023-04-29T06:18:36;9.70;99.90
52919;DHT22;38793;52.690;6.812;2023-04-29T06:21:02;9.70;99.90
52919;DHT22;38793;52.690;6.812;2023-04-29T06:23:28;9.80;99.90
52919;DHT22;38793;52.690;6.812;2023-04-29T06:25:53;9.80;99.90
52919;DHT22;38793;52.690;6.812;2023-04-29T06:28:19;9.80;99.90
52919;DHT22;38793;52.690;6.812;2023-04-29T06:30:45;9.80;99.90
52919;DHT22;38793;52.690;6.812;2023-04-29T06:33:11;9.80;99.90
52919;DHT22;38793;52.690;6.812;2023-04-29T06:35:40;9.80;99.90
52919;DHT22;38793;52.690;6.812;2023-04-29T06:38:06;9.90;99.90
52919;DHT22;38793;52.690;6.812;2023-04-29T06:40:33;9.90;99.90
52919;DHT22;38793;52.690;6.812;2023-04-29T06:42:59;10.00;99.90
52919;DHT22;38793;52.690;6.812;2023-04-29T06:45:24;10.00;99.90
52919;DHT22;38793;52.690;6.812;2023-04-29T06:47:50;10.00;99.90
52919;DHT22;38793;52.690;6.812;2023-04-29T06:50:15;10.00;99.90
52919;DHT22;38793;52.690;6.812;2023-04-29T06:52:41;10.10;99.90
52919;DHT22;38793;52.690;6.812;2023-04-29T06:55:07;10.10;99.90
52919;DHT22;38793;52.690;6.812;2023-04-29T06:57:33;10.10;99.90
52919;DHT22;38793;52.690;6.812;2023-04-29T06:59:58;10.10;99.90
52919;DHT22;38793;52.690;6.812;2023-04-29T07:02:24;10.10;99.90
52919;DHT22;38793;52.690;6.812;2023-04-29T07:04:50;10.10;99.90
52919;DHT22;38793;52.690;6.812;2023-04-29T07:07:16;10.20;99.90
52919;DHT22;38793;52.690;6.812;2023-04-29T07:09:42;10.20;99.90
52919;DHT22;38793;52.690;6.812;2023-04-29T07:12:07;10.20;99.90
52919;DHT22;38793;52.690;6.812;2023-04-29T07:14:33;10.20;99.90
52919;DHT22;38793;52.690;6.812;2023-04-29T07:16:59;10.30;99.90
52919;DHT22;38793;52.690;6.812;2023-04-29T07:19:24;10.30;99.90
52919;DHT22;38793;52.690;6.812;2023-04-29T07:21:50;10.30;99.90
52919;DHT22;38793;52.690;6.812;2023-04-29T07:24:15;10.40;99.90
52919;DHT22;38793;52.690;6.812;2023-04-29T07:26:43;10.40;99.90
52919;DHT22;38793;52.690;6.812;2023-04-29T07:29:09;10.50;99.90
52919;DHT22;38793;52.690;6.812;2023-04-29T07:31:35;10.60;99.90
52919;DHT22;38793;52.690;6.812;2023-04-29T07:34:00;10.60;99.90
52919;DHT22;38793;52.690;6.812;2023-04-29T07:36:26;10.60;99.90
52919;DHT22;38793;52.690;6.812;2023-04-29T07:38:53;10.70;99.90
52919;DHT22;38793;52.690;6.812;2023-04-29T07:41:18;10.80;99.90
52919;DHT22;38793;52.690;6.812;2023-04-29T07:43:44;10.80;99.90
52919;DHT22;38793;52.690;6.812;2023-04-29T07:46:10;10.90;99.90
52919;DHT22;38793;52.690;6.812;2023-04-29T07:48:37;11.00;99.90
52919;DHT22;38793;52.690;6.812;2023-04-29T07:51:04;11.00;99.90
52919;DHT22;38793;52.690;6.812;2023-04-29T07:53:30;11.10;99.90
52919;DHT22;38793;52.690;6.812;2023-04-29T07:55:55;11.20;99.90
52919;DHT22;38793;52.690;6.812;2023-04-29T07:58:21;11.20;99.90
52919;DHT22;38793;52.690;6.812;2023-04-29T08:00:47;11.30;99.90
52919;DHT22;38793;52.690;6.812;2023-04-29T08:03:12;11.40;99.90
52919;DHT22;38793;52.690;6.812;2023-04-29T08:05:38;11.40;99.90
52919;DHT22;38793;52.690;6.812;2023-04-29T08:08:04;11.50;99.90
52919;DHT22;38793;52.690;6.812;2023-04-29T08:10:30;11.60;99.90
52919;DHT22;38793;52.690;6.812;2023-04-29T08:12:56;11.60;99.90
52919;DHT22;38793;52.690;6.812;2023-04-29T08:15:22;11.70;99.90
52919;DHT22;38793;52.690;6.812;2023-04-29T08:17:48;11.80;99.90
52919;DHT22;38793;52.690;6.812;2023-04-29T08:20:13;11.90;99.90
52919;DHT22;38793;52.690;6.812;2023-04-29T08:22:39;12.00;99.90
52919;DHT22;38793;52.690;6.812;2023-04-29T08:25:06;12.20;99.90
52919;DHT22;38793;52.690;6.812;2023-04-29T08:27:31;12.40;99.90
52919;DHT22;38793;52.690;6.812;2023-04-29T08:29:57;12.50;99.90
52919;DHT22;38793;52.690;6.812;2023-04-29T08:32:23;12.70;99.90
52919;DHT22;38793;52.690;6.812;2023-04-29T08:34:48;12.80;99.90
52919;DHT22;38793;52.690;6.812;2023-04-29T08:37:14;13.00;99.90
52919;DHT22;38793;52.690;6.812;2023-04-29T08:39:40;13.20;99.90
52919;DHT22;38793;52.690;6.812;2023-04-29T08:42:11;13.30;99.90
52919;DHT22;38793;52.690;6.812;2023-04-29T08:44:37;13.50;99.90
52919;DHT22;38793;52.690;6.812;2023-04-29T08:47:05;13.60;99.90
52919;DHT22;38793;52.690;6.812;2023-04-29T08:49:31;13.70;99.90
52919;DHT22;38793;52.690;6.812;2023-04-29T08:51:58;13.90;99.90
52919;DHT22;38793;52.690;6.812;2023-04-29T08:54:24;14.00;99.90
52919;DHT22;38793;52.690;6.812;2023-04-29T08:56:51;14.10;99.90
52919;DHT22;38793;52.690;6.812;2023-04-29T08:59:17;14.20;99.90
52919;DHT22;38793;52.690;6.812;2023-04-29T09:01:43;14.30;99.90
52919;DHT22;38793;52.690;6.812;2023-04-29T09:04:25;14.30;99.90
52919;DHT22;38793;52.690;6.812;2023-04-29T09:06:55;14.30;99.90
52919;DHT22;38793;52.690;6.812;2023-04-29T09:09:23;14.30;99.90
52919;DHT22;38793;52.690;6.812;2023-04-29T09:11:49;14.30;99.90
52919;DHT22;38793;52.690;6.812;2023-04-29T09:14:15;14.40;99.90
52919;DHT22;38793;52.690;6.812;2023-04-29T09:16:41;14.40;99.90
52919;DHT22;38793;52.690;6.812;2023-04-29T09:19:06;14.50;99.90
52919;DHT22;38793;52.690;6.812;2023-04-29T09:21:32;14.60;99.90
52919;DHT22;38793;52.690;6.812;2023-04-29T09:23:59;14.60;99.90
52919;DHT22;38793;52.690;6.812;2023-04-29T09:26:26;14.60;99.90
52919;DHT22;38793;52.690;6.812;2023-04-29T09:31:34;14.80;99.90
52919;DHT22;38793;52.690;6.812;2023-04-29T09:34:01;15.00;99.90
52919;DHT22;38793;52.690;6.812;2023-04-29T09:39:07;15.20;99.90
52919;DHT22;38793;52.690;6.812;2023-04-29T09:41:38;15.30;99.90
52919;DHT22;38793;52.690;6.812;2023-04-29T09:44:05;15.30;99.90
52919;DHT22;38793;52.690;6.812;2023-04-29T09:46:32;15.30;99.90
52919;DHT22;38793;52.690;6.812;2023-04-29T09:48:58;15.20;99.90
52919;DHT22;38793;52.690;6.812;2023-04-29T09:51:24;15.20;99.90
52919;DHT22;38793;52.690;6.812;2023-04-29T09:53:49;15.20;99.90
52919;DHT22;38793;52.690;6.812;2023-04-29T09:56:15;15.10;99.90
52919;DHT22;38793;52.690;6.812;2023-04-29T09:58:41;15.20;99.90
52919;DHT22;38793;52.690;6.812;2023-04-29T10:01:06;15.30;99.90
52919;DHT22;38793;52.690;6.812;2023-04-29T10:03:33;15.40;99.90
52919;DHT22;38793;52.690;6.812;2023-04-29T10:06:00;15.50;99.90
52919;DHT22;38793;52.690;6.812;2023-04-29T10:08:28;15.60;99.90
52919;DHT22;38793;52.690;6.812;2023-04-29T10:10:56;15.70;99.90
52919;DHT22;38793;52.690;6.812;2023-04-29T10:13:24;15.70;99.90
52919;DHT22;38793;52.690;6.812;2023-04-29T10:18:35;15.90;99.90
52919;DHT22;38793;52.690;6.812;2023-04-29T10:21:06;16.10;99.90
52919;DHT22;38793;52.690;6.812;2023-04-29T10:23:34;16.20;99.90
52919;DHT22;38793;52.690;6.812;2023-04-29T10:26:01;16.20;99.90
52919;DHT22;38793;52.690;6.812;2023-04-29T10:28:30;16.20;99.90
52919;DHT22;38793;52.690;6.812;2023-04-29T10:31:00;16.10;99.90
52919;DHT22;38793;52.690;6.812;2023-04-29T10:33:30;16.10;99.90
52919;DHT22;38793;52.690;6.812;2023-04-29T10:35:57;16.00;99.90
52919;DHT22;38793;52.690;6.812;2023-04-29T10:38:30;16.10;99.90
52919;DHT22;38793;52.690;6.812;2023-04-29T10:41:01;16.20;99.90
52919;DHT22;38793;52.690;6.812;2023-04-29T10:43:29;16.30;99.90
52919;DHT22;38793;52.690;6.812;2023-04-29T10:46:25;16.20;99.90
52919;DHT22;38793;52.690;6.812;2023-04-29T10:49:02;16.10;99.90
52919;DHT22;38793;52.690;6.812;2023-04-29T10:51:28;16.10;99.90
52919;DHT22;38793;52.690;6.812;2023-04-29T10:56:48;16.40;99.90
52919;DHT22;38793;52.690;6.812;2023-04-29T11:01:53;16.80;99.90
52919;DHT22;38793;52.690;6.812;2023-04-29T11:04:20;16.90;99.90
52919;DHT22;38793;52.690;6.812;2023-04-29T11:06:51;16.90;99.90
52919;DHT22;38793;52.690;6.812;2023-04-29T11:14:28;17.10;99.90
52919;DHT22;38793;52.690;6.812;2023-04-29T11:16:58;17.00;99.90
52919;DHT22;38793;52.690;6.812;2023-04-29T11:19:29;16.90;99.90
52919;DHT22;38793;52.690;6.812;2023-04-29T11:27:19;17.20;99.90
52919;DHT22;38793;52.690;6.812;2023-04-29T11:29:45;17.20;99.90
52919;DHT22;38793;52.690;6.812;2023-04-29T11:32:12;17.20;99.90
52919;DHT22;38793;52.690;6.812;2023-04-29T11:34:37;17.00;99.70
52919;DHT22;38793;52.690;6.812;2023-04-29T11:37:04;17.00;99.90
52919;DHT22;38793;52.690;6.812;2023-04-29T11:39:33;17.00;99.70
52919;DHT22;38793;52.690;6.812;2023-04-29T11:42:04;17.20;99.90
52919;DHT22;38793;52.690;6.812;2023-04-29T11:44:29;17.40;99.90
52919;DHT22;38793;52.690;6.812;2023-04-29T11:47:27;17.60;99.70
52919;DHT22;38793;52.690;6.812;2023-04-29T11:50:01;17.70;98.40
52919;DHT22;38793;52.690;6.812;2023-04-29T11:52:28;17.60;99.00
52919;DHT22;38793;52.690;6.812;2023-04-29T11:54:53;17.60;99.40
52919;DHT22;38793;52.690;6.812;2023-04-29T11:57:19;17.40;99.30
52919;DHT22;38793;52.690;6.812;2023-04-29T11:59:45;17.40;98.30
52919;DHT22;38793;52.690;6.812;2023-04-29T12:02:11;17.40;98.80
52919;DHT22;38793;52.690;6.812;2023-04-29T12:04:47;17.40;99.30
52919;DHT22;38793;52.690;6.812;2023-04-29T12:07:16;17.50;98.30
52919;DHT22;38793;52.690;6.812;2023-04-29T12:09:45;17.60;98.20
52919;DHT22;38793;52.690;6.812;2023-04-29T12:12:12;17.70;97.50
52919;DHT22;38793;52.690;6.812;2023-04-29T12:14:39;17.70;98.00
52919;DHT22;38793;52.690;6.812;2023-04-29T12:17:05;17.80;97.70
52919;DHT22;38793;52.690;6.812;2023-04-29T12:19:31;18.00;97.90
52919;DHT22;38793;52.690;6.812;2023-04-29T12:22:02;18.10;97.00
52919;DHT22;38793;52.690;6.812;2023-04-29T12:24:27;18.10;96.80
52919;DHT22;38793;52.690;6.812;2023-04-29T12:26:56;18.20;96.80
52919;DHT22;38793;52.690;6.812;2023-04-29T12:29:25;18.30;97.00
52919;DHT22;38793;52.690;6.812;2023-04-29T12:31:50;18.30;96.80
52919;DHT22;38793;52.690;6.812;2023-04-29T12:34:23;18.40;96.20
52919;DHT22;38793;52.690;6.812;2023-04-29T12:36:49;18.30;95.80
52919;DHT22;38793;52.690;6.812;2023-04-29T12:39:15;18.20;95.50
52919;DHT22;38793;52.690;6.812;2023-04-29T12:41:41;18.10;95.60
52919;DHT22;38793;52.690;6.812;2023-04-29T12:44:07;18.10;95.70
52919;DHT22;38793;52.690;6.812;2023-04-29T12:46:40;18.00;95.30
52919;DHT22;38793;52.690;6.812;2023-04-29T12:49:06;18.00;95.90
52919;DHT22;38793;52.690;6.812;2023-04-29T12:51:33;18.10;95.00
52919;DHT22;38793;52.690;6.812;2023-04-29T12:54:01;18.10;95.10
52919;DHT22;38793;52.690;6.812;2023-04-29T12:56:28;18.20;94.90
52919;DHT22;38793;52.690;6.812;2023-04-29T12:58:55;18.30;95.10
52919;DHT22;38793;52.690;6.812;2023-04-29T13:01:20;18.40;95.20
52919;DHT22;38793;52.690;6.812;2023-04-29T13:03:46;18.40;94.90
52919;DHT22;38793;52.690;6.812;2023-04-29T13:06:12;18.30;94.80
52919;DHT22;38793;52.690;6.812;2023-04-29T13:08:37;18.30;94.70
52919;DHT22;38793;52.690;6.812;2023-04-29T13:11:03;18.20;94.40
52919;DHT22;38793;52.690;6.812;2023-04-29T13:13:28;18.10;94.70
52919;DHT22;38793;52.690;6.812;2023-04-29T13:15:54;18.00;95.10
52919;DHT22;38793;52.690;6.812;2023-04-29T13:18:20;17.90;94.80
52919;DHT22;38793;52.690;6.812;2023-04-29T13:20:46;17.90;94.60
52919;DHT22;38793;52.690;6.812;2023-04-29T13:23:11;17.90;94.80
52919;DHT22;38793;52.690;6.812;2023-04-29T13:25:37;17.90;94.60
52919;DHT22;38793;52.690;6.812;2023-04-29T13:28:03;18.00;94.90
52919;DHT22;38793;52.690;6.812;2023-04-29T13:30:29;18.00;94.80
52919;DHT22;38793;52.690;6.812;2023-04-29T13:32:55;18.10;95.30
52919;DHT22;38793;52.690;6.812;2023-04-29T13:35:21;18.20;95.40
52919;DHT22;38793;52.690;6.812;2023-04-29T13:37:47;18.20;94.50
52919;DHT22;38793;52.690;6.812;2023-04-29T13:40:13;18.10;94.40
52919;DHT22;38793;52.690;6.812;2023-04-29T13:42:38;18.10;95.10
52919;DHT22;38793;52.690;6.812;2023-04-29T13:45:04;18.10;94.80
52919;DHT22;38793;52.690;6.812;2023-04-29T13:47:30;18.30;95.40
52919;DHT22;38793;52.690;6.812;2023-04-29T13:49:55;18.30;94.70
52919;DHT22;38793;52.690;6.812;2023-04-29T13:52:21;18.40;94.70
52919;DHT22;38793;52.690;6.812;2023-04-29T13:54:47;18.50;94.50
52919;DHT22;38793;52.690;6.812;2023-04-29T13:57:12;18.30;94.20
52919;DHT22;38793;52.690;6.812;2023-04-29T13:59:38;18.20;93.40
52919;DHT22;38793;52.690;6.812;2023-04-29T14:02:04;18.10;93.40
52919;DHT22;38793;52.690;6.812;2023-04-29T14:04:29;18.10;93.10
52919;DHT22;38793;52.690;6.812;2023-04-29T14:06:55;18.10;94.00
52919;DHT22;38793;52.690;6.812;2023-04-29T14:09:22;18.20;93.50
52919;DHT22;38793;52.690;6.812;2023-04-29T14:11:48;18.30;93.20
52919;DHT22;38793;52.690;6.812;2023-04-29T14:14:15;18.20;92.30
52919;DHT22;38793;52.690;6.812;2023-04-29T14:16:41;18.30;92.90
52919;DHT22;38793;52.690;6.812;2023-04-29T14:19:06;18.30;92.70
52919;DHT22;38793;52.690;6.812;2023-04-29T14:21:33;18.40;93.10
52919;DHT22;38793;52.690;6.812;2023-04-29T14:23:59;18.40;91.70
52919;DHT22;38793;52.690;6.812;2023-04-29T14:26:26;18.50;91.60
52919;DHT22;38793;52.690;6.812;2023-04-29T14:28:53;18.50;91.50
52919;DHT22;38793;52.690;6.812;2023-04-29T14:31:25;18.50;91.30
52919;DHT22;38793;52.690;6.812;2023-04-29T14:33:52;18.50;91.00
52919;DHT22;38793;52.690;6.812;2023-04-29T14:36:18;18.40;91.60
52919;DHT22;38793;52.690;6.812;2023-04-29T14:38:44;18.50;91.00
52919;DHT22;38793;52.690;6.812;2023-04-29T14:41:09;18.40;91.40
52919;DHT22;38793;52.690;6.812;2023-04-29T14:43:35;18.40;90.70
52919;DHT22;38793;52.690;6.812;2023-04-29T14:46:00;18.30;90.60
52919;DHT22;38793;52.690;6.812;2023-04-29T14:48:26;18.20;90.90
52919;DHT22;38793;52.690;6.812;2023-04-29T14:50:53;18.20;91.40
52919;DHT22;38793;52.690;6.812;2023-04-29T14:53:19;18.20;91.60
52919;DHT22;38793;52.690;6.812;2023-04-29T14:55:45;18.20;90.90
52919;DHT22;38793;52.690;6.812;2023-04-29T14:58:11;18.10;91.40
52919;DHT22;38793;52.690;6.812;2023-04-29T15:00:37;18.00;90.70
52919;DHT22;38793;52.690;6.812;2023-04-29T15:03:03;17.90;91.10
52919;DHT22;38793;52.690;6.812;2023-04-29T15:05:29;17.90;90.90
52919;DHT22;38793;52.690;6.812;2023-04-29T15:07:55;17.80;90.40
52919;DHT22;38793;52.690;6.812;2023-04-29T15:10:23;17.70;90.70
52919;DHT22;38793;52.690;6.812;2023-04-29T15:12:48;17.70;90.80
52919;DHT22;38793;52.690;6.812;2023-04-29T15:15:16;17.70;90.80
52919;DHT22;38793;52.690;6.812;2023-04-29T15:17:42;17.70;91.10
52919;DHT22;38793;52.690;6.812;2023-04-29T15:20:08;17.60;90.40
52919;DHT22;38793;52.690;6.812;2023-04-29T15:22:34;17.60;91.00
52919;DHT22;38793;52.690;6.812;2023-04-29T15:25:00;17.50;90.00
52919;DHT22;38793;52.690;6.812;2023-04-29T15:27:25;17.40;90.20
52919;DHT22;38793;52.690;6.812;2023-04-29T15:29:52;17.40;90.50
52919;DHT22;38793;52.690;6.812;2023-04-29T15:32:21;17.30;90.80
52919;DHT22;38793;52.690;6.812;2023-04-29T15:34:47;17.30;90.90
52919;DHT22;38793;52.690;6.812;2023-04-29T15:37:12;17.30;91.10
52919;DHT22;38793;52.690;6.812;2023-04-29T15:39:38;17.30;91.30
52919;DHT22;38793;52.690;6.812;2023-04-29T15:42:03;17.20;91.40
52919;DHT22;38793;52.690;6.812;2023-04-29T15:44:29;17.10;91.00
52919;DHT22;38793;52.690;6.812;2023-04-29T15:46:55;17.10;91.10
52919;DHT22;38793;52.690;6.812;2023-04-29T15:49:21;17.00;91.10
52919;DHT22;38793;52.690;6.812;2023-04-29T15:51:46;17.00;91.30
52919;DHT22;38793;52.690;6.812;2023-04-29T15:54:12;16.90;91.10
52919;DHT22;38793;52.690;6.812;2023-04-29T15:56:37;16.90;91.50
52919;DHT22;38793;52.690;6.812;2023-04-29T15:59:03;16.90;91.50
52919;DHT22;38793;52.690;6.812;2023-04-29T16:01:29;16.80;91.80
52919;DHT22;38793;52.690;6.812;2023-04-29T16:03:55;16.80;91.70
52919;DHT22;38793;52.690;6.812;2023-04-29T16:06:20;16.80;91.70